createdAt,value
2019-05-21T00:00:09.524Z,3.80
2019-05-21T00:02:39.562Z,4.35
2019-05-21T00:05:09.843Z,9.70
2019-05-21T00:07:39.942Z,9.38
2019-05-21T00:10:10.350Z,3.85
2019-05-21T00:12:40.452Z,3.90
2019-05-21T00:15:11.030Z,3.75
2019-05-21T00:17:40.890Z,3.70
2019-05-21T00:20:12.699Z,5.58
2019-05-21T00:22:42.870Z,9.38
2019-05-21T00:25:16.911Z,5.90
2019-05-21T00:27:44.935Z,4.35
2019-05-21T00:30:51.023Z,5.85
2019-05-21T00:33:56.967Z,4.42
2019-05-21T00:37:04.088Z,3.45
2019-05-21T00:40:09.793Z,5.17
2019-05-21T00:42:42.907Z,4.60
2019-05-21T00:45:13.191Z,5.60
2019-05-21T00:47:43.184Z,4.20
2019-05-21T00:50:13.387Z,5.85
2019-05-21T00:52:43.320Z,10.23
2019-05-21T00:55:13.423Z,5.28
2019-05-21T00:57:46.802Z,8.50
2019-05-21T01:00:17.664Z,5.50
2019-05-21T01:02:47.731Z,5.17
2019-05-21T01:05:17.895Z,4.53
2019-05-21T01:07:47.823Z,7.78
2019-05-21T01:10:17.923Z,4.90
2019-05-21T01:12:47.923Z,8.33
2019-05-21T01:15:18.023Z,6.40
2019-05-21T01:17:49.199Z,9.20
2019-05-21T01:20:19.244Z,6.78
2019-05-21T01:22:49.211Z,8.18
2019-05-21T01:25:19.243Z,7.10
2019-05-21T01:27:49.274Z,5.85
2019-05-21T01:30:19.344Z,9.30
2019-05-21T01:32:49.319Z,7.05
2019-05-21T01:35:19.243Z,8.90
2019-05-21T01:37:49.291Z,6.37
2019-05-21T01:40:19.287Z,10.82
2019-05-21T01:42:49.248Z,7.60
2019-05-21T01:45:19.275Z,7.35
2019-05-21T01:47:49.309Z,6.50
2019-05-21T01:50:19.274Z,6.95
2019-05-21T01:52:49.202Z,10.45
2019-05-21T01:55:19.318Z,8.50
2019-05-21T01:57:53.928Z,7.95
2019-05-21T02:00:24.040Z,11.55
2019-05-21T02:02:54.002Z,7.00
2019-05-21T02:05:32.769Z,8.33
2019-05-21T02:07:55.897Z,9.38
2019-05-21T02:10:25.883Z,9.75
2019-05-21T02:12:55.775Z,11.35
2019-05-21T02:15:25.850Z,14.58
2019-05-21T02:17:55.881Z,9.68
2019-05-21T02:20:25.947Z,8.53
2019-05-21T02:22:56.062Z,16.10
2019-05-21T02:25:26.127Z,8.38
2019-05-21T02:27:56.214Z,8.83
2019-05-21T02:30:26.228Z,9.43
2019-05-21T02:32:56.348Z,8.55
2019-05-21T02:35:26.440Z,10.80
2019-05-21T02:37:56.520Z,10.35
2019-05-21T02:40:26.657Z,12.13
2019-05-21T02:42:56.731Z,11.45
2019-05-21T02:45:26.916Z,11.97
2019-05-21T02:47:56.996Z,8.45
2019-05-21T02:50:27.027Z,14.65
2019-05-21T02:52:57.138Z,10.28
2019-05-21T02:55:27.104Z,11.12
2019-05-21T02:57:57.040Z,8.65
2019-05-21T03:00:38.378Z,13.10
2019-05-21T03:03:07.842Z,10.15
2019-05-21T03:05:37.951Z,12.18
2019-05-21T03:08:07.984Z,9.98
2019-05-21T03:10:38.080Z,13.90
2019-05-21T03:13:08.154Z,13.55
2019-05-21T03:15:38.268Z,10.25
2019-05-21T03:18:08.197Z,10.20
2019-05-21T03:20:38.315Z,12.05
2019-05-21T03:23:08.348Z,10.40
2019-05-21T03:25:38.354Z,15.40
2019-05-21T03:28:08.456Z,9.20
2019-05-21T03:30:38.477Z,10.35
2019-05-21T03:33:08.500Z,19.27
2019-05-21T03:35:38.578Z,12.75
2019-05-21T03:38:08.611Z,9.23
2019-05-21T03:40:39.619Z,11.28
2019-05-21T03:43:09.551Z,8.38
2019-05-21T03:45:39.523Z,11.25
2019-05-21T03:48:09.647Z,12.15
2019-05-21T03:50:39.765Z,13.48
2019-05-21T03:53:09.887Z,10.32
2019-05-21T03:55:40.000Z,9.18
2019-05-21T03:58:10.035Z,14.00
2019-05-21T04:00:40.144Z,18.80
2019-05-21T04:03:10.260Z,11.08
2019-05-21T04:05:40.334Z,17.25
2019-05-21T04:08:10.390Z,8.60
2019-05-21T04:10:40.426Z,11.25
2019-05-21T04:13:10.460Z,9.55
2019-05-21T04:15:51.488Z,10.40
2019-05-21T04:18:33.179Z,9.58
2019-05-21T04:21:03.278Z,11.73
2019-05-21T04:23:33.399Z,10.70
2019-05-21T04:26:03.500Z,8.08
2019-05-21T04:28:33.528Z,12.88
2019-05-21T04:31:03.571Z,12.23
2019-05-21T04:33:33.610Z,12.50
2019-05-21T04:36:03.683Z,11.73
2019-05-21T04:38:33.736Z,12.93
2019-05-21T04:41:03.759Z,10.80
2019-05-21T04:43:33.734Z,16.15
2019-05-21T04:46:04.734Z,12.15
2019-05-21T04:48:35.356Z,13.68
2019-05-21T04:51:05.460Z,12.35
2019-05-21T04:53:35.441Z,18.75
2019-05-21T04:56:05.554Z,10.43
2019-05-21T04:58:35.600Z,14.63
2019-05-21T05:01:05.712Z,10.23
2019-05-21T05:03:36.381Z,11.90
2019-05-21T05:06:06.488Z,12.00
2019-05-21T05:08:36.659Z,13.65
2019-05-21T05:11:07.267Z,10.82
2019-05-21T05:13:37.324Z,11.00
2019-05-21T05:16:07.380Z,13.58
2019-05-21T05:18:37.387Z,12.20
2019-05-21T05:21:07.356Z,17.73
2019-05-21T05:23:37.463Z,15.85
2019-05-21T05:26:07.503Z,13.75
2019-05-21T05:28:37.607Z,15.53
2019-05-21T05:31:07.696Z,13.48
2019-05-21T05:33:37.723Z,11.55
2019-05-21T05:36:07.799Z,15.25
2019-05-21T05:38:37.907Z,11.65
2019-05-21T05:41:07.985Z,16.07
2019-05-21T05:43:38.020Z,13.72
2019-05-21T05:46:08.028Z,14.65
2019-05-21T05:48:39.801Z,13.55
2019-05-21T05:51:09.981Z,13.70
2019-05-21T05:53:58.212Z,14.58
2019-05-21T05:56:29.361Z,12.28
2019-05-21T05:58:59.620Z,12.63
2019-05-21T06:01:31.334Z,13.93
2019-05-21T06:04:01.524Z,18.52
2019-05-21T06:06:31.626Z,16.12
2019-05-21T06:09:02.358Z,17.87
2019-05-21T06:11:32.727Z,19.73
2019-05-21T06:14:02.899Z,17.20
2019-05-21T06:16:32.832Z,13.72
2019-05-21T06:19:03.018Z,13.05
2019-05-21T06:21:33.023Z,19.65
2019-05-21T06:24:03.072Z,14.25
2019-05-21T06:26:33.155Z,16.45
2019-05-21T06:29:03.290Z,15.98
2019-05-21T06:31:33.235Z,21.25
2019-05-21T06:34:03.293Z,16.93
2019-05-21T06:36:33.236Z,17.50
2019-05-21T06:39:05.133Z,13.75
2019-05-21T06:41:35.283Z,20.08
2019-05-21T06:44:05.498Z,17.35
2019-05-21T06:46:35.652Z,15.05
2019-05-21T06:49:05.726Z,13.10
2019-05-21T06:51:35.872Z,17.95
2019-05-21T06:54:05.936Z,21.10
2019-05-21T06:56:36.046Z,18.07
2019-05-21T06:59:06.132Z,18.37
2019-05-21T07:01:36.257Z,18.17
2019-05-21T07:04:06.383Z,16.00
2019-05-21T07:06:36.468Z,14.15
2019-05-21T07:09:07.108Z,21.75
2019-05-21T07:11:37.052Z,18.07
2019-05-21T07:14:07.164Z,17.27
2019-05-21T07:16:38.053Z,18.45
2019-05-21T07:19:08.133Z,20.20
2019-05-21T07:21:38.236Z,21.87
2019-05-21T07:24:08.315Z,19.95
2019-05-21T07:26:38.379Z,17.65
2019-05-21T07:29:08.468Z,16.12
2019-05-21T07:31:38.670Z,20.10
2019-05-21T07:34:08.666Z,17.62
2019-05-21T07:36:38.643Z,19.48
2019-05-21T07:39:08.754Z,20.57
2019-05-21T07:41:38.807Z,22.50
2019-05-21T07:44:08.852Z,19.20
2019-05-21T07:46:39.897Z,19.57
2019-05-21T07:49:10.107Z,20.35
2019-05-21T07:51:40.102Z,17.87
2019-05-21T07:54:10.162Z,19.25
2019-05-21T07:56:40.256Z,17.23
2019-05-21T07:59:10.357Z,17.42
2019-05-21T08:01:40.329Z,24.02
2019-05-21T08:04:10.347Z,22.15
2019-05-21T08:06:40.467Z,24.23
2019-05-21T08:09:14.109Z,23.12
2019-05-21T08:11:42.235Z,18.32
2019-05-21T08:14:12.388Z,20.80
2019-05-21T08:16:42.556Z,21.82
2019-05-21T08:19:12.755Z,15.93
2019-05-21T08:21:42.879Z,13.90
2019-05-21T08:24:12.996Z,18.62
2019-05-21T08:26:43.103Z,11.08
2019-05-21T08:29:13.208Z,12.88
2019-05-21T08:31:43.216Z,12.37
2019-05-21T08:34:13.191Z,17.42
2019-05-21T08:36:44.238Z,18.85
2019-05-21T08:39:27.757Z,12.78
2019-05-21T08:41:45.859Z,13.95
2019-05-21T08:44:15.898Z,15.80
2019-05-21T08:46:45.980Z,11.18
2019-05-21T08:49:16.087Z,16.75
2019-05-21T08:51:46.134Z,10.25
2019-05-21T08:54:17.839Z,15.93
2019-05-21T08:56:47.912Z,9.75
2019-05-21T08:59:17.843Z,10.82
2019-05-21T09:01:47.960Z,10.85
2019-05-21T09:04:18.276Z,14.75
2019-05-21T09:06:48.527Z,9.85
2019-05-21T09:09:18.618Z,9.53
2019-05-21T09:11:48.651Z,9.08
2019-05-21T09:14:24.178Z,10.60
2019-05-21T09:16:54.130Z,8.68
2019-05-21T09:19:25.639Z,11.75
2019-05-21T09:21:59.879Z,9.35
2019-05-21T09:24:29.944Z,18.37
2019-05-21T09:27:00.095Z,13.20
2019-05-21T09:29:34.895Z,9.68
2019-05-21T09:32:06.716Z,12.90
2019-05-21T09:34:48.011Z,11.68
2019-05-21T09:37:19.238Z,11.88
2019-05-21T09:39:40.264Z,9.95
2019-05-21T09:42:10.368Z,13.72
2019-05-21T09:44:40.440Z,9.68
2019-05-21T09:47:10.563Z,14.23
2019-05-21T09:49:43.773Z,12.07
2019-05-21T09:52:13.819Z,13.20
2019-05-21T09:54:44.167Z,15.53
2019-05-21T09:57:15.993Z,12.13
2019-05-21T09:59:47.704Z,9.68
2019-05-21T10:02:25.404Z,13.53
2019-05-21T10:04:55.431Z,13.10
2019-05-21T10:07:39.270Z,14.23
2019-05-21T10:09:57.175Z,13.43
2019-05-21T10:12:27.155Z,13.32
2019-05-21T10:14:57.183Z,19.98
2019-05-21T10:17:27.160Z,12.20
2019-05-21T10:19:58.997Z,12.28
2019-05-21T10:22:29.160Z,13.83
2019-05-21T10:24:59.290Z,13.45
2019-05-21T10:27:29.436Z,10.13
2019-05-21T10:29:59.541Z,14.25
2019-05-21T10:32:29.553Z,15.63
2019-05-21T10:34:59.610Z,13.48
2019-05-21T10:37:30.059Z,12.68
2019-05-21T10:40:00.102Z,12.00
2019-05-21T10:42:31.284Z,13.10
2019-05-21T10:45:01.413Z,16.55
2019-05-21T10:47:32.695Z,14.23
2019-05-21T10:50:02.778Z,14.38
2019-05-21T10:52:32.964Z,14.00
2019-05-21T10:55:03.475Z,14.05
2019-05-21T10:57:54.098Z,16.93
2019-05-21T11:00:33.570Z,11.85
2019-05-21T11:03:17.082Z,10.30
2019-05-21T11:06:09.708Z,13.30
2019-05-21T11:08:42.744Z,17.42
2019-05-21T11:11:14.562Z,18.70
2019-05-21T11:13:44.678Z,11.25
2019-05-21T11:16:21.594Z,12.73
2019-05-21T11:18:52.525Z,10.25
2019-05-21T11:21:24.896Z,9.53
2019-05-21T11:26:37.934Z,11.12
2019-05-21T11:29:06.542Z,9.00
2019-05-21T11:31:38.395Z,8.38
2019-05-21T11:34:13.640Z,10.10
2019-05-21T11:36:46.759Z,9.65
2019-05-21T11:39:16.867Z,11.50
2019-05-21T11:41:51.524Z,13.25
2019-05-21T11:44:30.107Z,11.55
2019-05-21T11:47:02.433Z,14.13
2019-05-21T11:49:32.469Z,11.78
2019-05-21T11:52:10.620Z,10.63
2019-05-21T11:57:46.216Z,10.45
2019-05-21T12:00:21.446Z,10.32
2019-05-21T12:02:50.647Z,10.98
2019-05-21T12:05:20.673Z,11.28
2019-05-21T12:07:50.784Z,12.82
2019-05-21T12:10:21.763Z,13.00
2019-05-21T12:12:51.734Z,10.98
2019-05-21T12:15:21.943Z,11.12
2019-05-21T12:17:51.885Z,11.38
2019-05-21T12:20:35.472Z,11.83
2019-05-21T12:22:53.733Z,11.18
2019-05-21T12:25:23.775Z,11.88
2019-05-21T12:27:53.726Z,12.58
2019-05-21T12:30:23.932Z,13.70
2019-05-21T12:32:53.872Z,11.18
2019-05-21T12:35:23.945Z,12.53
2019-05-21T12:37:54.027Z,12.60
2019-05-21T12:40:24.440Z,12.73
2019-05-21T12:42:54.479Z,12.58
2019-05-21T12:45:24.562Z,14.05
2019-05-21T12:47:54.696Z,14.58
2019-05-21T12:50:25.515Z,14.45
2019-05-21T12:52:55.644Z,12.60
2019-05-21T12:55:25.719Z,17.10
2019-05-21T12:58:00.129Z,12.37
2019-05-21T13:00:48.066Z,14.33
2019-05-21T13:03:40.196Z,14.05
2019-05-21T13:09:50.447Z,14.23
2019-05-21T13:12:26.536Z,18.55
2019-05-21T13:14:56.832Z,13.53
2019-05-21T13:17:26.919Z,13.20
2019-05-21T13:20:12.763Z,16.10
2019-05-21T13:22:43.180Z,14.53
2019-05-21T13:25:20.757Z,16.12
2019-05-21T13:28:09.641Z,13.65
2019-05-21T13:30:40.080Z,13.80
2019-05-21T13:33:10.215Z,13.15
2019-05-21T13:35:40.444Z,13.75
2019-05-21T13:38:13.445Z,16.73
2019-05-21T13:40:42.288Z,14.78
2019-05-21T13:43:12.760Z,11.40
2019-05-21T13:45:42.918Z,12.05
2019-05-21T13:48:13.109Z,12.28
2019-05-21T13:50:44.189Z,13.03
2019-05-21T13:55:44.296Z,13.93
2019-05-21T13:58:14.501Z,12.43
2019-05-21T14:00:50.197Z,13.00
2019-05-21T14:03:25.943Z,13.43
2019-05-21T14:05:59.548Z,11.95
2019-05-21T14:08:36.420Z,12.00
2019-05-21T14:11:15.934Z,13.15
2019-05-21T14:13:46.755Z,11.57
2019-05-21T14:16:23.971Z,12.60
2019-05-21T14:18:55.275Z,13.78
2019-05-21T14:23:55.430Z,12.95
2019-05-21T14:29:49.427Z,11.20
2019-05-21T14:32:45.894Z,15.15
2019-05-21T14:35:15.296Z,13.80
2019-05-21T14:38:06.445Z,10.20
2019-05-21T14:40:52.719Z,12.25
2019-05-21T14:43:28.324Z,11.97
2019-05-21T14:46:03.640Z,15.35
2019-05-21T14:48:34.017Z,17.70
2019-05-21T14:51:07.065Z,17.17
2019-05-21T14:53:37.207Z,17.42
2019-05-21T14:56:07.817Z,17.65
2019-05-21T14:58:37.820Z,18.73
2019-05-21T15:01:07.899Z,17.35
2019-05-21T15:03:37.876Z,25.70
2019-05-21T15:06:07.879Z,18.85
2019-05-21T15:08:37.856Z,19.60
2019-05-21T15:11:07.916Z,25.43
2019-05-21T15:13:38.102Z,20.97
2019-05-21T15:16:08.222Z,25.10
2019-05-21T15:18:38.320Z,19.40
2019-05-21T15:21:10.651Z,18.77
2019-05-21T15:23:41.648Z,21.12
2019-05-21T15:26:12.397Z,25.10
2019-05-21T15:28:42.450Z,21.07
2019-05-21T15:31:12.462Z,17.32
2019-05-21T15:33:43.681Z,19.55
2019-05-21T15:36:13.760Z,20.57
2019-05-21T15:38:49.906Z,18.87
2019-05-21T15:41:15.544Z,18.02
2019-05-21T15:43:45.577Z,16.50
2019-05-21T15:46:15.689Z,19.65
2019-05-21T15:48:47.366Z,17.80
2019-05-21T15:51:18.843Z,17.07
2019-05-21T15:53:48.794Z,18.90
2019-05-21T15:56:18.929Z,21.75
2019-05-21T15:58:49.007Z,18.77
2019-05-21T16:01:19.077Z,19.12
2019-05-21T16:03:49.120Z,21.55
2019-05-21T16:06:19.206Z,20.82
2019-05-21T16:08:49.312Z,19.48
2019-05-21T16:11:28.565Z,21.33
2019-05-21T16:13:51.271Z,19.30
2019-05-21T16:16:21.287Z,27.93
2019-05-21T16:18:51.363Z,21.37
2019-05-21T16:21:21.347Z,19.77
2019-05-21T16:23:51.332Z,18.42
2019-05-21T16:26:23.380Z,23.50
2019-05-21T16:28:53.156Z,20.15
2019-05-21T16:31:23.285Z,28.30
2019-05-21T16:33:53.305Z,22.40
2019-05-21T16:36:23.492Z,26.00
2019-05-21T16:38:53.537Z,23.22
2019-05-21T16:41:24.820Z,22.35
2019-05-21T16:43:55.010Z,18.98
2019-05-21T16:46:25.133Z,17.37
2019-05-21T16:48:55.319Z,26.62
2019-05-21T16:51:25.442Z,21.42
2019-05-21T16:53:55.550Z,19.62
2019-05-21T16:56:25.667Z,22.05
2019-05-21T16:58:55.974Z,21.68
2019-05-21T17:03:59.911Z,19.32
2019-05-21T17:06:32.095Z,21.07
2019-05-21T17:09:01.992Z,19.65
2019-05-21T17:11:33.376Z,19.00
2019-05-21T17:14:06.225Z,16.12
2019-05-21T17:16:36.483Z,22.87
2019-05-21T17:19:06.705Z,17.40
2019-05-21T17:21:37.184Z,22.67
2019-05-21T17:24:07.968Z,20.70
2019-05-21T17:26:38.497Z,25.00
2019-05-21T17:29:08.672Z,22.35
2019-05-21T17:31:38.789Z,24.25
2019-05-21T17:34:13.557Z,23.65
2019-05-21T17:36:43.944Z,23.83
2019-05-21T17:39:13.972Z,27.20
2019-05-21T17:41:44.220Z,21.10
2019-05-21T17:44:14.243Z,34.70
2019-05-21T17:46:44.470Z,26.50
2019-05-21T17:49:14.628Z,17.37
2019-05-21T17:51:45.856Z,17.48
2019-05-21T17:54:16.361Z,21.15
2019-05-21T17:56:46.414Z,18.37
2019-05-21T17:59:20.483Z,23.35
2019-05-21T18:01:52.755Z,19.35
2019-05-21T18:04:22.840Z,21.95
2019-05-21T18:06:53.256Z,19.60
2019-05-21T18:09:23.852Z,19.07
2019-05-21T18:11:54.377Z,20.95
2019-05-21T18:14:24.979Z,20.97
2019-05-21T18:16:55.080Z,18.62
2019-05-21T18:19:25.441Z,20.50
2019-05-21T18:21:55.563Z,17.35
2019-05-21T18:24:27.035Z,26.33
2019-05-21T18:26:57.099Z,18.45
2019-05-21T18:29:27.254Z,21.50
2019-05-21T18:31:57.300Z,22.82
2019-05-21T18:34:27.511Z,21.33
2019-05-21T18:36:57.708Z,24.40
2019-05-21T18:39:28.164Z,22.55
2019-05-21T18:41:58.443Z,21.93
2019-05-21T18:44:28.634Z,26.65
2019-05-21T18:46:58.672Z,21.52
2019-05-21T18:49:28.894Z,19.80
2019-05-21T18:51:58.914Z,23.02
2019-05-21T18:54:29.062Z,20.05
2019-05-21T18:56:59.039Z,24.07
2019-05-21T18:59:29.252Z,26.85
2019-05-21T19:01:59.327Z,26.85
2019-05-21T19:04:29.448Z,22.82
2019-05-21T19:06:59.682Z,27.62
2019-05-21T19:09:29.864Z,22.30
2019-05-21T19:12:00.104Z,22.98
2019-05-21T19:14:30.172Z,24.85
2019-05-21T19:17:00.390Z,25.40
2019-05-21T19:19:30.533Z,26.62
2019-05-21T19:22:00.699Z,24.07
2019-05-21T19:24:31.021Z,27.00
2019-05-21T19:27:01.126Z,26.93
2019-05-21T19:29:32.350Z,25.88
2019-05-21T19:32:02.406Z,25.48
2019-05-21T19:34:32.495Z,25.00
2019-05-21T19:37:02.506Z,32.13
2019-05-21T19:39:32.770Z,28.70
2019-05-21T19:42:02.915Z,25.60
2019-05-21T19:44:33.234Z,27.70
2019-05-21T19:47:03.401Z,25.92
2019-05-21T19:49:33.518Z,29.12
2019-05-21T19:52:03.764Z,30.23
2019-05-21T19:54:33.898Z,31.62
2019-05-21T19:57:04.523Z,29.77
2019-05-21T19:59:34.675Z,28.12
2019-05-21T20:02:06.591Z,29.67
2019-05-21T20:04:36.927Z,31.35
2019-05-21T20:07:07.672Z,34.55
2019-05-21T20:09:37.954Z,34.60
2019-05-21T20:12:09.742Z,33.63
2019-05-21T20:14:40.530Z,30.82
2019-05-21T20:17:11.164Z,27.87
2019-05-21T20:19:41.714Z,36.85
2019-05-21T20:22:12.498Z,31.57
2019-05-21T20:24:42.751Z,30.88
2019-05-21T20:27:13.515Z,29.67
2019-05-21T20:29:43.736Z,30.35
2019-05-21T20:32:14.247Z,29.95
2019-05-21T20:34:44.810Z,37.07
2019-05-21T20:37:16.504Z,38.55
2019-05-21T20:39:47.802Z,30.62
2019-05-21T20:42:20.094Z,34.92
2019-05-21T20:44:50.430Z,32.83
2019-05-21T20:47:20.650Z,36.10
2019-05-21T20:49:51.092Z,33.15
2019-05-21T20:52:21.310Z,32.65
2019-05-21T20:54:53.046Z,34.18
2019-05-21T20:57:44.949Z,36.08
2019-05-21T21:00:18.034Z,31.57
2019-05-21T21:02:48.523Z,34.85
2019-05-21T21:05:19.002Z,35.17
2019-05-21T21:07:50.047Z,34.03
2019-05-21T21:10:20.804Z,30.97
2019-05-21T21:12:51.325Z,33.20
2019-05-21T21:17:51.996Z,37.65
2019-05-21T21:20:22.102Z,32.50
2019-05-21T21:22:52.196Z,36.40
2019-05-21T21:25:22.649Z,36.33
2019-05-21T21:27:52.943Z,33.30
2019-05-21T21:30:23.130Z,39.35
2019-05-21T21:32:53.646Z,34.73
2019-05-21T21:35:24.223Z,39.50
2019-05-21T21:37:54.239Z,38.73
2019-05-21T21:40:24.990Z,35.80
2019-05-21T21:42:55.435Z,36.28
2019-05-21T21:45:25.552Z,38.03
2019-05-21T21:47:56.709Z,38.25
2019-05-21T21:50:28.395Z,36.68
2019-05-21T21:52:59.143Z,40.43
2019-05-21T21:55:31.931Z,39.83
2019-05-21T21:58:00.836Z,39.80
2019-05-21T22:01:08.355Z,48.90
2019-05-21T22:03:38.880Z,42.05
2019-05-21T22:06:10.248Z,41.77
2019-05-21T22:11:09.407Z,42.75
2019-05-21T22:13:39.527Z,38.13
2019-05-21T22:16:09.847Z,43.20
2019-05-21T22:18:42.117Z,39.83
2019-05-21T22:21:12.497Z,42.95
2019-05-21T22:23:43.124Z,42.20
2019-05-21T22:26:13.848Z,46.80
2019-05-21T22:28:43.914Z,39.80
2019-05-21T22:31:14.087Z,47.43
2019-05-21T22:33:44.416Z,46.42
2019-05-21T22:36:14.695Z,48.73
2019-05-21T22:38:44.784Z,40.85
2019-05-21T22:41:14.840Z,43.58
2019-05-21T22:43:45.215Z,41.75
2019-05-21T22:46:15.307Z,45.58
2019-05-21T22:48:45.464Z,39.42
2019-05-21T22:51:15.589Z,43.13
2019-05-21T22:53:45.774Z,38.98
2019-05-21T22:56:16.005Z,39.35
2019-05-21T22:58:46.020Z,41.63
2019-05-21T23:01:16.515Z,38.28
2019-05-21T23:03:46.795Z,40.60
2019-05-21T23:06:17.055Z,43.38
2019-05-21T23:08:47.407Z,38.10
2019-05-21T23:11:17.591Z,35.95
2019-05-21T23:13:47.679Z,42.08
2019-05-21T23:16:17.891Z,40.52
2019-05-21T23:19:06.773Z,44.48
2019-05-21T23:21:51.799Z,39.58
2019-05-21T23:26:53.771Z,45.45
2019-05-21T23:29:24.130Z,41.30
2019-05-21T23:31:54.423Z,36.80
2019-05-21T23:34:24.611Z,38.02
2019-05-21T23:36:54.830Z,37.25
2019-05-21T23:39:27.432Z,44.30
2019-05-21T23:41:57.614Z,49.33
2019-05-21T23:44:27.668Z,39.73
2019-05-21T23:46:57.676Z,50.30
2019-05-21T23:49:27.787Z,40.20
2019-05-21T23:51:57.872Z,40.80
2019-05-21T23:54:27.922Z,38.02
2019-05-21T23:56:59.411Z,40.58
2019-05-21T23:59:29.769Z,46.77
